Time;durP1;ratioP1;P1;durP2;ratioP2;P2;SDS_P1;SDS_P2;PMS_P1;PMS_P2;Temp;Humidity;BMP_temperature;BMP_pressure;BME280_temperature;BME280_humidity;BME280_pressure;Samples;Min_cycle;Max_cycle;Signal;HPM_P1;HPM_P2
2023/03/25 05:17:52;;;;;;;8.77;4.25;;;;;;;;;;4970513;28;20051;-63
2023/03/25 05:20:18;;;;;;;10.07;4.53;;;;;;;;;;4972321;28;20391;-74
2023/03/25 05:22:44;;;;;;;9.75;5.20;;;;;;;;;;4972577;28;20027;-72
2023/03/25 05:25:11;;;;;;;9.20;5.05;;;;;;;;;;4972588;28;20422;-72
2023/03/25 05:27:37;;;;;;;11.40;5.60;;;;;;;;;;4972703;28;20565;-64
2023/03/25 05:30:03;;;;;;;12.25;5.82;;;;;;;;;;4972669;28;20078;-64
2023/03/25 05:32:32;;;;;;;13.45;5.90;;;;;;;;;;4955335;28;20383;-63
2023/03/25 05:34:58;;;;;;;9.45;5.32;;;;;;;;;;4965514;28;20043;-65
2023/03/25 05:37:24;;;;;;;11.70;5.93;;;;;;;;;;4953367;29;20729;-71
2023/03/25 05:39:50;;;;;;;15.32;6.43;;;;;;;;;;4953217;29;20053;-65
2023/03/25 05:42:17;;;;;;;12.45;5.90;;;;;;;;;;4956968;28;20143;-65
2023/03/25 05:44:45;;;;;;;13.32;5.88;;;;;;;;;;4962596;28;20035;-65
2023/03/25 05:47:12;;;;;;;12.52;5.90;;;;;;;;;;4960128;28;20174;-64
2023/03/25 05:49:40;;;;;;;11.48;5.30;;;;;;;;;;4962196;28;20046;-64
2023/03/25 05:52:08;;;;;;;11.65;5.47;;;;;;;;;;4960140;28;20027;-65
2023/03/25 05:54:37;;;;;;;16.42;6.03;;;;;;;;;;4972335;28;20050;-68
2023/03/25 05:57:04;;;;;;;16.85;6.15;;;;;;;;;;4972441;28;20166;-69
2023/03/25 05:59:30;;;;;;;14.40;7.65;;;;;;;;;;4972395;28;20494;-62
2023/03/25 06:01:56;;;;;;;13.73;6.53;;;;;;;;;;4962517;28;20039;-66
2023/03/25 06:04:22;;;;;;;11.45;6.10;;;;;;;;;;4959765;28;20191;-65
2023/03/25 06:06:49;;;;;;;17.85;7.55;;;;;;;;;;4952849;29;20031;-62
2023/03/25 06:09:16;;;;;;;17.15;7.45;;;;;;;;;;4952676;29;20428;-62
2023/03/25 06:11:42;;;;;;;13.93;7.13;;;;;;;;;;4952505;29;20027;-64
2023/03/25 06:14:09;;;;;;;13.93;7.00;;;;;;;;;;4968637;28;20022;-65
2023/03/25 06:16:35;;;;;;;15.55;7.20;;;;;;;;;;4954778;28;20067;-64
2023/03/25 06:19:01;;;;;;;16.35;7.07;;;;;;;;;;4932782;29;20035;-68
2023/03/25 06:21:32;;;;;;;18.58;8.73;;;;;;;;;;4931903;29;20016;-65
2023/03/25 06:24:00;;;;;;;21.70;9.32;;;;;;;;;;4932710;29;20027;-65
2023/03/25 06:26:29;;;;;;;16.30;7.63;;;;;;;;;;4937528;29;20031;-75
2023/03/25 06:28:56;;;;;;;12.15;7.35;;;;;;;;;;4917981;29;20360;-64
2023/03/25 06:31:32;;;;;;;12.02;6.43;;;;;;;;;;4943806;29;20059;-78
2023/03/25 06:33:58;;;;;;;9.60;5.85;;;;;;;;;;4926115;29;20024;-67
2023/03/25 06:36:24;;;;;;;10.90;5.63;;;;;;;;;;4922200;29;20033;-71
2023/03/25 06:38:50;;;;;;;13.60;6.20;;;;;;;;;;4918269;29;20491;-70
2023/03/25 06:41:19;;;;;;;11.32;5.22;;;;;;;;;;4918046;29;20020;-76
2023/03/25 06:43:45;;;;;;;7.80;4.30;;;;;;;;;;4918096;29;20477;-72
2023/03/25 06:46:12;;;;;;;11.95;8.02;;;;;;;;;;4918137;29;20069;-74
2023/03/25 06:48:38;;;;;;;13.55;5.85;;;;;;;;;;4918016;29;20540;-69
2023/03/25 06:51:04;;;;;;;7.72;4.18;;;;;;;;;;4918094;29;20115;-77
2023/03/25 06:53:31;;;;;;;6.63;3.67;;;;;;;;;;4918501;29;20024;-72
2023/03/25 06:55:57;;;;;;;8.23;4.13;;;;;;;;;;4917663;29;20028;-77
2023/03/25 06:58:23;;;;;;;6.75;4.38;;;;;;;;;;4918382;29;20463;-71
2023/03/25 07:00:55;;;;;;;9.80;4.22;;;;;;;;;;4917780;29;20032;-73
2023/03/25 07:03:21;;;;;;;9.55;4.93;;;;;;;;;;4918128;29;20819;-74
2023/03/25 07:05:50;;;;;;;9.48;3.97;;;;;;;;;;4918094;29;20408;-73
2023/03/25 07:08:16;;;;;;;8.15;4.20;;;;;;;;;;4918411;29;20086;-81
2023/03/25 07:10:42;;;;;;;6.38;4.13;;;;;;;;;;4917715;29;20040;-80
2023/03/25 07:13:09;;;;;;;7.72;4.07;;;;;;;;;;4917189;29;20111;-65
2023/03/25 07:15:35;;;;;;;8.35;4.85;;;;;;;;;;4917936;29;20028;-64
2023/03/25 07:18:01;;;;;;;7.15;3.95;;;;;;;;;;4935459;29;20487;-77
2023/03/25 07:20:27;;;;;;;9.48;4.20;;;;;;;;;;4936324;29;20024;-71
2023/03/25 07:22:54;;;;;;;6.85;4.22;;;;;;;;;;4936871;29;20028;-77
2023/03/25 07:25:20;;;;;;;8.07;4.50;;;;;;;;;;4938687;29;20039;-78
2023/03/25 07:27:47;;;;;;;10.23;5.10;;;;;;;;;;4918326;29;20427;-74
2023/03/25 07:30:13;;;;;;;8.40;5.10;;;;;;;;;;4951783;29;20031;-69
2023/03/25 07:32:39;;;;;;;10.32;4.60;;;;;;;;;;4955776;29;20031;-76
2023/03/25 07:35:08;;;;;;;10.32;5.45;;;;;;;;;;4955851;29;20467;-66
2023/03/25 07:37:34;;;;;;;7.50;4.50;;;;;;;;;;4955413;29;20082;-68
2023/03/25 07:40:00;;;;;;;8.05;4.70;;;;;;;;;;4962040;29;20114;-77
2023/03/25 07:42:26;;;;;;;12.52;5.40;;;;;;;;;;4955122;29;20109;-66
2023/03/25 07:44:52;;;;;;;9.93;5.80;;;;;;;;;;4954694;28;20034;-66
2023/03/25 07:47:18;;;;;;;10.38;5.22;;;;;;;;;;4954953;29;20043;-75
2023/03/25 07:49:45;;;;;;;37.42;19.73;;;;;;;;;;4954581;29;20038;-74
2023/03/25 07:52:11;;;;;;;14.90;8.65;;;;;;;;;;4955324;29;20027;-75
2023/03/25 07:54:37;;;;;;;9.52;6.75;;;;;;;;;;4955046;29;20085;-75
2023/03/25 07:57:03;;;;;;;13.18;6.53;;;;;;;;;;4954998;29;20055;-70
2023/03/25 07:59:29;;;;;;;13.85;7.72;;;;;;;;;;4954916;29;20152;-79
2023/03/25 08:01:55;;;;;;;13.70;8.30;;;;;;;;;;4954801;29;20042;-72
2023/03/25 08:04:21;;;;;;;25.63;14.52;;;;;;;;;;4954964;29;20030;-72
2023/03/25 08:06:47;;;;;;;17.67;10.07;;;;;;;;;;4955283;29;20027;-68
2023/03/25 08:09:14;;;;;;;19.80;10.25;;;;;;;;;;4954755;29;20498;-74
2023/03/25 08:11:40;;;;;;;18.98;9.18;;;;;;;;;;4954659;29;20035;-71
2023/03/25 08:14:06;;;;;;;16.35;8.45;;;;;;;;;;4942724;29;20171;-68
2023/03/25 08:16:32;;;;;;;14.23;7.45;;;;;;;;;;4935107;29;20067;-68
2023/03/25 08:18:58;;;;;;;20.77;12.30;;;;;;;;;;4935029;29;20024;-74
2023/03/25 08:21:26;;;;;;;12.98;7.65;;;;;;;;;;4934987;29;20023;-77
2023/03/25 08:23:57;;;;;;;14.40;7.28;;;;;;;;;;4935266;29;20144;-76
2023/03/25 08:26:23;;;;;;;12.60;7.93;;;;;;;;;;4943557;29;20530;-72
2023/03/25 08:28:49;;;;;;;12.52;7.10;;;;;;;;;;4954479;29;20047;-68
2023/03/25 08:31:15;;;;;;;15.82;8.90;;;;;;;;;;4954210;29;20043;-72
2023/03/25 08:33:41;;;;;;;24.23;8.82;;;;;;;;;;4954208;29;20031;-74
2023/03/25 08:36:09;;;;;;;57.33;18.45;;;;;;;;;;4955541;29;20100;-71
2023/03/25 08:38:35;;;;;;;29.90;13.63;;;;;;;;;;4956784;29;20058;-77
2023/03/25 08:41:02;;;;;;;13.65;7.60;;;;;;;;;;4956853;29;20027;-79
2023/03/25 08:43:28;;;;;;;13.80;7.38;;;;;;;;;;4953704;29;20027;-73
2023/03/25 08:46:03;;;;;;;22.05;14.00;;;;;;;;;;4955866;29;20489;-79
2023/03/25 08:48:30;;;;;;;22.25;13.43;;;;;;;;;;4966030;29;20041;-72
2023/03/25 08:50:57;;;;;;;18.98;9.77;;;;;;;;;;4956207;29;20031;-70
2023/03/25 08:53:23;;;;;;;16.52;10.32;;;;;;;;;;4953960;29;20031;-70
2023/03/25 08:55:51;;;;;;;13.32;8.20;;;;;;;;;;4941754;29;20028;-74
2023/03/25 08:58:18;;;;;;;13.57;7.82;;;;;;;;;;4949237;29;20156;-71
2023/03/25 09:00:44;;;;;;;10.93;6.22;;;;;;;;;;4951898;29;20031;-71
2023/03/25 09:03:10;;;;;;;16.23;8.65;;;;;;;;;;4945848;29;20483;-76
2023/03/25 09:05:37;;;;;;;18.73;10.80;;;;;;;;;;4952383;29;20026;-74
2023/03/25 09:08:07;;;;;;;13.98;8.48;;;;;;;;;;4955563;29;20143;-79
2023/03/25 09:10:33;;;;;;;19.75;9.35;;;;;;;;;;4958065;29;20554;-78
2023/03/25 09:13:00;;;;;;;15.52;8.60;;;;;;;;;;4940168;29;20039;-71
2023/03/25 09:15:26;;;;;;;11.50;8.10;;;;;;;;;;4951752;28;20035;-73
2023/03/25 09:17:52;;;;;;;11.18;6.47;;;;;;;;;;4946268;29;20087;-69
2023/03/25 09:20:18;;;;;;;10.00;7.07;;;;;;;;;;4953076;29;20023;-78
2023/03/25 09:22:44;;;;;;;9.88;7.15;;;;;;;;;;4952310;29;20042;-70
2023/03/25 09:25:10;;;;;;;11.27;6.15;;;;;;;;;;4953249;29;20028;-77
2023/03/25 09:27:37;;;;;;;13.15;8.15;;;;;;;;;;4952977;29;20102;-76
2023/03/25 09:30:03;;;;;;;10.88;6.35;;;;;;;;;;4952903;29;20047;-76
2023/03/25 09:32:30;;;;;;;12.57;6.50;;;;;;;;;;4953310;29;20054;-77
2023/03/25 09:34:56;;;;;;;10.52;5.35;;;;;;;;;;4953001;29;20467;-70
2023/03/25 09:37:22;;;;;;;8.98;4.70;;;;;;;;;;4953096;29;20027;-73
2023/03/25 09:39:48;;;;;;;7.85;5.20;;;;;;;;;;4953181;29;20093;-70
2023/03/25 09:42:32;;;;;;;11.70;5.30;;;;;;;;;;4952452;29;20042;-70
2023/03/25 09:45:06;;;;;;;9.02;5.18;;;;;;;;;;4952502;29;20023;-75
2023/03/25 09:47:33;;;;;;;8.68;4.57;;;;;;;;;;4952412;29;20043;-72
2023/03/25 09:50:01;;;;;;;8.00;5.05;;;;;;;;;;4951638;29;20369;-76
2023/03/25 09:52:47;;;;;;;8.00;4.30;;;;;;;;;;4946359;29;20395;-73
2023/03/25 09:55:17;;;;;;;11.40;5.47;;;;;;;;;;4938440;29;20496;-72
2023/03/25 09:57:50;;;;;;;9.98;5.78;;;;;;;;;;4951486;29;20027;-74
2023/03/25 10:00:21;;;;;;;6.78;3.80;;;;;;;;;;4952017;29;20074;-70
2023/03/25 10:03:03;;;;;;;9.32;4.85;;;;;;;;;;4937822;29;20423;-75
2023/03/25 10:05:47;;;;;;;7.50;4.50;;;;;;;;;;4951940;29;20113;-66
2023/03/25 10:08:13;;;;;;;5.90;4.03;;;;;;;;;;4948268;29;20027;-74
2023/03/25 10:11:06;;;;;;;4.70;2.88;;;;;;;;;;4951762;29;20468;-68
2023/03/25 10:13:40;;;;;;;6.07;2.55;;;;;;;;;;4947427;29;20051;-81
2023/03/25 10:16:18;;;;;;;4.38;3.05;;;;;;;;;;4952116;28;20506;-73
2023/03/25 10:19:03;;;;;;;5.00;3.00;;;;;;;;;;4952461;29;20039;-74
2023/03/25 10:21:29;;;;;;;3.45;2.60;;;;;;;;;;4952640;29;20027;-72
2023/03/25 10:24:18;;;;;;;6.72;3.03;;;;;;;;;;4961650;29;20076;-71
2023/03/25 10:26:57;;;;;;;4.80;2.95;;;;;;;;;;4872748;29;20037;-73
2023/03/25 10:29:46;;;;;;;4.55;2.83;;;;;;;;;;4874759;29;20064;-73
2023/03/25 10:32:16;;;;;;;5.22;3.22;;;;;;;;;;4819417;29;20058;-73
2023/03/25 10:34:54;;;;;;;5.05;2.90;;;;;;;;;;4819878;29;20046;-66
2023/03/25 10:37:43;;;;;;;6.60;2.72;;;;;;;;;;4819652;29;20130;-66
2023/03/25 10:40:15;;;;;;;5.85;3.28;;;;;;;;;;4819637;29;20027;-66
2023/03/25 10:42:47;;;;;;;6.22;3.67;;;;;;;;;;4819565;29;20050;-73
2023/03/25 10:45:14;;;;;;;7.32;4.38;;;;;;;;;;4819693;29;20114;-70
2023/03/25 10:47:42;;;;;;;9.75;4.47;;;;;;;;;;4819025;29;20046;-71
2023/03/25 10:50:14;;;;;;;6.57;4.38;;;;;;;;;;4819421;29;20046;-67
2023/03/25 10:52:40;;;;;;;5.20;3.38;;;;;;;;;;4819399;29;20085;-71
2023/03/25 10:55:14;;;;;;;8.75;3.25;;;;;;;;;;4819403;29;20058;-69
2023/03/25 10:57:40;;;;;;;6.68;3.00;;;;;;;;;;4819168;29;20555;-69
2023/03/25 11:00:23;;;;;;;4.35;2.80;;;;;;;;;;4819441;29;20038;-66
2023/03/25 11:02:50;;;;;;;5.55;3.15;;;;;;;;;;4822580;29;20133;-66
2023/03/25 11:05:18;;;;;;;4.05;2.83;;;;;;;;;;4855855;29;20069;-66
2023/03/25 11:07:46;;;;;;;4.82;3.03;;;;;;;;;;4856077;29;20037;-67
2023/03/25 11:10:13;;;;;;;5.32;2.97;;;;;;;;;;4941360;29;20395;-66
2023/03/25 11:12:44;;;;;;;5.22;2.67;;;;;;;;;;4950465;29;20031;-65
2023/03/25 11:15:18;;;;;;;4.68;2.85;;;;;;;;;;4954397;28;20194;-71
2023/03/25 11:17:46;;;;;;;3.53;2.13;;;;;;;;;;4945651;28;20129;-66
2023/03/25 11:20:25;;;;;;;3.47;2.03;;;;;;;;;;4954799;29;20027;-73
2023/03/25 11:22:53;;;;;;;3.47;2.40;;;;;;;;;;4955518;28;20031;-71
2023/03/25 11:25:28;;;;;;;7.32;2.58;;;;;;;;;;4962496;28;20023;-77
2023/03/25 11:27:56;;;;;;;3.40;2.35;;;;;;;;;;4962621;28;20451;-65
2023/03/25 11:30:23;;;;;;;5.10;2.65;;;;;;;;;;4962405;28;20090;-69
2023/03/25 11:33:02;;;;;;;5.55;2.60;;;;;;;;;;4962993;28;20043;-66
2023/03/25 11:35:29;;;;;;;5.55;2.20;;;;;;;;;;4960117;28;20379;-73
2023/03/25 11:37:59;;;;;;;2.38;1.60;;;;;;;;;;4960544;28;20050;-66
2023/03/25 11:40:27;;;;;;;4.43;1.90;;;;;;;;;;4974599;28;20080;-65
2023/03/25 11:42:57;;;;;;;6.10;2.30;;;;;;;;;;4975160;28;20453;-74
2023/03/25 11:45:25;;;;;;;4.22;1.88;;;;;;;;;;4974623;28;20042;-73
2023/03/25 11:47:52;;;;;;;2.53;1.50;;;;;;;;;;4974231;28;20101;-67
2023/03/25 11:50:28;;;;;;;5.20;2.47;;;;;;;;;;4962615;28;20027;-66
2023/03/25 11:52:59;;;;;;;6.50;2.20;;;;;;;;;;4967233;28;20474;-69
2023/03/25 11:55:27;;;;;;;8.38;4.18;;;;;;;;;;4965203;28;20034;-69
2023/03/25 11:57:55;;;;;;;8.85;2.35;;;;;;;;;;4963048;28;20071;-65
2023/03/25 12:00:25;;;;;;;2.55;1.40;;;;;;;;;;4964679;28;20015;-66
2023/03/25 12:03:09;;;;;;;3.22;1.38;;;;;;;;;;4964123;28;20031;-67
2023/03/25 12:05:37;;;;;;;5.75;2.28;;;;;;;;;;4964258;28;20086;-68
2023/03/25 12:08:10;;;;;;;2.20;1.20;;;;;;;;;;4962993;28;20035;-72
2023/03/25 12:10:45;;;;;;;3.00;2.10;;;;;;;;;;4963564;28;20077;-65
2023/03/25 12:13:30;;;;;;;3.65;1.65;;;;;;;;;;4962136;28;20101;-75
2023/03/25 12:15:56;;;;;;;4.00;1.48;;;;;;;;;;4956602;28;20114;-66
2023/03/25 12:18:40;;;;;;;3.13;1.40;;;;;;;;;;4956996;28;20114;-67
2023/03/25 12:21:20;;;;;;;5.75;2.90;;;;;;;;;;4954649;28;20475;-66
2023/03/25 12:24:04;;;;;;;4.15;1.70;;;;;;;;;;4954685;29;20133;-66
2023/03/25 12:26:30;;;;;;;7.10;2.05;;;;;;;;;;4954410;29;20038;-70
2023/03/25 12:28:57;;;;;;;3.72;2.03;;;;;;;;;;4955709;28;20035;-70
2023/03/25 12:31:40;;;;;;;3.28;1.40;;;;;;;;;;4941116;29;20041;-67
2023/03/25 12:34:26;;;;;;;5.00;2.33;;;;;;;;;;4953715;29;20023;-66
2023/03/25 12:37:09;;;;;;;3.78;2.35;;;;;;;;;;4948415;29;20031;-69
2023/03/25 12:39:48;;;;;;;5.45;2.63;;;;;;;;;;4954110;29;20870;-68
2023/03/25 12:42:17;;;;;;;3.83;2.28;;;;;;;;;;4954242;29;20023;-68
2023/03/25 12:44:54;;;;;;;5.05;2.30;;;;;;;;;;4953583;29;20034;-68
2023/03/25 12:47:32;;;;;;;4.85;2.40;;;;;;;;;;4953729;29;20036;-70
2023/03/25 12:50:21;;;;;;;4.20;2.58;;;;;;;;;;4953656;29;20035;-68
2023/03/25 12:53:00;;;;;;;4.32;2.55;;;;;;;;;;4941205;29;20159;-70
2023/03/25 12:55:45;;;;;;;4.47;2.33;;;;;;;;;;4950139;29;20159;-68
2023/03/25 12:58:30;;;;;;;6.05;2.45;;;;;;;;;;4951479;29;20027;-67
2023/03/25 13:00:56;;;;;;;5.75;2.10;;;;;;;;;;4951762;29;20031;-71
2023/03/25 13:03:22;;;;;;;4.85;1.80;;;;;;;;;;4952380;29;20027;-71
2023/03/25 13:06:07;;;;;;;4.78;1.45;;;;;;;;;;4935666;29;20112;-67
2023/03/25 13:08:41;;;;;;;2.38;1.23;;;;;;;;;;4951735;28;20028;-68
2023/03/25 13:11:12;;;;;;;1.85;1.17;;;;;;;;;;4950894;29;20055;-71
2023/03/25 13:13:39;;;;;;;14.85;7.28;;;;;;;;;;4953416;29;20077;-67
2023/03/25 13:16:11;;;;;;;3.97;1.92;;;;;;;;;;4956293;28;20053;-69
2023/03/25 13:18:39;;;;;;;3.63;1.70;;;;;;;;;;4959355;28;20062;-70
2023/03/25 13:21:24;;;;;;;4.05;0.95;;;;;;;;;;4961940;28;20455;-70
2023/03/25 13:23:58;;;;;;;2.42;1.20;;;;;;;;;;4967962;28;20831;-70
2023/03/25 13:26:28;;;;;;;4.85;2.95;;;;;;;;;;4959726;28;20107;-73
2023/03/25 13:29:00;;;;;;;3.38;1.63;;;;;;;;;;4961962;28;20073;-74
2023/03/25 13:31:28;;;;;;;2.70;1.23;;;;;;;;;;4958823;28;20031;-72
2023/03/25 13:34:17;;;;;;;2.38;1.30;;;;;;;;;;4967229;28;20027;-72
2023/03/25 13:36:48;;;;;;;4.40;1.70;;;;;;;;;;4959524;28;20082;-73
2023/03/25 13:39:20;;;;;;;2.75;1.55;;;;;;;;;;4960351;28;20050;-75
2023/03/25 13:41:55;;;;;;;6.90;1.85;;;;;;;;;;4960114;28;20027;-74
2023/03/25 13:44:26;;;;;;;4.18;2.05;;;;;;;;;;4960710;28;20058;-66
2023/03/25 13:47:16;;;;;;;4.82;1.50;;;;;;;;;;4958347;28;20039;-68
2023/03/25 13:49:47;;;;;;;2.90;1.55;;;;;;;;;;4882067;29;20068;-70
2023/03/25 13:52:14;;;;;;;2.83;1.42;;;;;;;;;;4880556;29;20090;-70
2023/03/25 13:54:46;;;;;;;5.72;3.60;;;;;;;;;;4890028;29;20115;-69
2023/03/25 13:57:12;;;;;;;4.43;1.85;;;;;;;;;;4881020;29;20036;-70
2023/03/25 13:59:57;;;;;;;3.78;1.38;;;;;;;;;;4882036;29;20032;-77
2023/03/25 14:02:34;;;;;;;3.83;1.52;;;;;;;;;;4884162;29;20040;-72
2023/03/25 14:05:08;;;;;;;2.28;1.35;;;;;;;;;;4883606;29;20025;-77
2023/03/25 14:07:53;;;;;;;4.93;2.17;;;;;;;;;;4891678;29;20123;-86
2023/03/25 14:10:29;;;;;;;3.60;1.70;;;;;;;;;;4893982;29;20043;-68
2023/03/25 14:12:58;;;;;;;4.13;2.08;;;;;;;;;;4893393;29;20135;-75
2023/03/25 14:15:24;;;;;;;4.18;1.50;;;;;;;;;;4893063;29;20029;-65
2023/03/25 14:17:53;;;;;;;4.80;2.30;;;;;;;;;;4890600;29;20153;-82
2023/03/25 14:20:38;;;;;;;3.90;1.80;;;;;;;;;;4882385;29;20036;-72
2023/03/25 14:23:05;;;;;;;4.07;1.70;;;;;;;;;;4879849;29;20377;-80
2023/03/25 14:25:32;;;;;;;4.07;1.90;;;;;;;;;;4884427;29;20088;-67
2023/03/25 14:27:59;;;;;;;4.45;2.60;;;;;;;;;;4958691;28;20138;-76
2023/03/25 14:30:27;;;;;;;3.22;1.60;;;;;;;;;;4957415;28;20154;-68
2023/03/25 14:32:56;;;;;;;2.80;1.60;;;;;;;;;;4960376;28;20046;-76
2023/03/25 14:35:37;;;;;;;3.92;1.80;;;;;;;;;;4961658;28;20098;-70
2023/03/25 14:38:08;;;;;;;3.53;2.10;;;;;;;;;;4968674;28;20066;-67
2023/03/25 14:40:37;;;;;;;2.92;1.63;;;;;;;;;;4972043;28;20023;-67
2023/03/25 14:43:18;;;;;;;4.07;2.10;;;;;;;;;;4971907;28;20034;-70
2023/03/25 14:46:04;;;;;;;3.47;1.50;;;;;;;;;;4971489;28;20085;-71
2023/03/25 14:48:33;;;;;;;2.28;1.15;;;;;;;;;;4971854;28;20483;-72
2023/03/25 14:51:18;;;;;;;2.88;1.45;;;;;;;;;;4971417;28;20050;-66
2023/03/25 14:53:52;;;;;;;3.72;1.88;;;;;;;;;;4972280;28;20086;-70
2023/03/25 14:56:19;;;;;;;3.55;1.67;;;;;;;;;;4975592;28;20090;-69
2023/03/25 14:58:50;;;;;;;3.00;1.40;;;;;;;;;;4975584;28;20039;-70
2023/03/25 15:01:18;;;;;;;2.45;1.20;;;;;;;;;;4975304;28;20514;-71
2023/03/25 15:03:46;;;;;;;3.58;1.70;;;;;;;;;;4975326;28;20483;-70
2023/03/25 15:06:17;;;;;;;3.30;1.58;;;;;;;;;;4975199;28;20022;-68
2023/03/25 15:08:51;;;;;;;2.83;1.35;;;;;;;;;;4967106;28;20487;-70
2023/03/25 15:11:24;;;;;;;3.08;1.70;;;;;;;;;;4975172;28;20042;-70
2023/03/25 15:13:52;;;;;;;4.53;2.15;;;;;;;;;;4975135;28;20026;-70
2023/03/25 15:16:35;;;;;;;5.95;2.30;;;;;;;;;;4969222;28;20066;-65
2023/03/25 15:19:11;;;;;;;7.55;3.80;;;;;;;;;;4974770;28;20062;-67
2023/03/25 15:21:56;;;;;;;3.55;2.10;;;;;;;;;;4972848;28;20109;-68
2023/03/25 15:24:26;;;;;;;3.28;1.73;;;;;;;;;;4978832;28;20050;-74
2023/03/25 15:26:56;;;;;;;4.07;2.03;;;;;;;;;;4961469;28;20023;-72
2023/03/25 15:29:37;;;;;;;4.40;2.30;;;;;;;;;;4962602;28;20161;-72
2023/03/25 15:32:04;;;;;;;4.10;1.77;;;;;;;;;;4982689;28;20454;-70
2023/03/25 15:34:30;;;;;;;5.75;1.73;;;;;;;;;;4974595;28;20045;-70
2023/03/25 15:37:08;;;;;;;29.40;13.65;;;;;;;;;;4974864;28;20390;-70
2023/03/25 15:39:37;;;;;;;3.28;2.13;;;;;;;;;;4965068;28;20122;-67
2023/03/25 15:42:20;;;;;;;2.33;1.30;;;;;;;;;;4955514;29;20041;-65
2023/03/25 15:44:56;;;;;;;5.43;2.20;;;;;;;;;;4955193;29;20084;-71
2023/03/25 15:47:31;;;;;;;4.78;1.55;;;;;;;;;;4955163;28;20050;-66
2023/03/25 15:50:07;;;;;;;5.03;2.17;;;;;;;;;;4954712;28;20027;-66
2023/03/25 15:52:52;;;;;;;3.65;1.85;;;;;;;;;;4955166;28;20051;-73
2023/03/25 15:55:40;;;;;;;3.08;1.90;;;;;;;;;;4955059;29;20108;-69
2023/03/25 15:58:11;;;;;;;21.25;9.63;;;;;;;;;;4962835;28;20033;-66
2023/03/25 16:00:41;;;;;;;9.00;3.58;;;;;;;;;;4963806;29;20804;-73
2023/03/25 16:03:11;;;;;;;3.42;2.10;;;;;;;;;;4954765;29;20383;-68
2023/03/25 16:05:38;;;;;;;7.05;3.75;;;;;;;;;;4954703;28;20035;-70
2023/03/25 16:08:10;;;;;;;5.13;3.35;;;;;;;;;;4948750;28;20036;-69
2023/03/25 16:10:40;;;;;;;4.35;2.10;;;;;;;;;;4962675;28;20027;-71
2023/03/25 16:13:11;;;;;;;6.55;3.92;;;;;;;;;;4973811;28;20393;-65
2023/03/25 16:15:41;;;;;;;4.07;1.45;;;;;;;;;;4963969;28;20052;-69
2023/03/25 16:18:10;;;;;;;6.65;2.10;;;;;;;;;;4945292;28;20082;-68
2023/03/25 16:20:37;;;;;;;6.40;2.47;;;;;;;;;;4945621;28;20031;-67
2023/03/25 16:23:05;;;;;;;6.93;2.65;;;;;;;;;;4950382;28;20047;-70
2023/03/25 16:25:36;;;;;;;5.50;2.20;;;;;;;;;;4950567;29;20039;-70
2023/03/25 16:28:04;;;;;;;12.43;7.50;;;;;;;;;;4929994;29;20604;-68
2023/03/25 16:30:35;;;;;;;9.35;5.35;;;;;;;;;;4964873;28;20034;-67
2023/03/25 16:33:10;;;;;;;7.55;3.97;;;;;;;;;;4949112;28;20047;-68
2023/03/25 16:35:38;;;;;;;6.75;3.65;;;;;;;;;;4953323;28;20026;-67
2023/03/25 16:38:05;;;;;;;7.70;3.33;;;;;;;;;;4961708;28;20105;-70
2023/03/25 16:40:31;;;;;;;12.43;6.18;;;;;;;;;;4949112;28;20026;-67
2023/03/25 16:43:11;;;;;;;9.07;4.05;;;;;;;;;;4955047;28;20155;-69
2023/03/25 16:45:37;;;;;;;20.67;8.85;;;;;;;;;;4973535;28;20039;-68
2023/03/25 16:48:11;;;;;;;14.82;7.45;;;;;;;;;;4953643;28;20046;-70
2023/03/25 16:50:38;;;;;;;16.13;7.30;;;;;;;;;;4941908;29;20491;-70
2023/03/25 16:53:05;;;;;;;14.63;6.57;;;;;;;;;;4943253;29;20116;-68
2023/03/25 16:55:41;;;;;;;44.05;23.23;;;;;;;;;;4948952;29;20495;-66
2023/03/25 16:58:14;;;;;;;27.85;12.23;;;;;;;;;;4937964;29;20027;-66
2023/03/25 17:00:42;;;;;;;11.70;6.00;;;;;;;;;;4963306;28;20058;-67
2023/03/25 17:03:13;;;;;;;10.93;4.65;;;;;;;;;;4966281;28;20015;-71
2023/03/25 17:05:49;;;;;;;11.25;4.78;;;;;;;;;;4952119;29;20023;-68
2023/03/25 17:08:17;;;;;;;16.27;7.60;;;;;;;;;;4951398;29;20389;-67
2023/03/25 17:10:47;;;;;;;13.13;6.82;;;;;;;;;;4934917;29;20487;-71
2023/03/25 17:13:18;;;;;;;12.05;6.28;;;;;;;;;;4952390;29;20038;-71
2023/03/25 17:15:47;;;;;;;13.38;8.13;;;;;;;;;;4951764;28;20387;-71
2023/03/25 17:18:14;;;;;;;13.50;7.40;;;;;;;;;;4952378;29;20035;-66
2023/03/25 17:20:42;;;;;;;9.25;5.10;;;;;;;;;;4953376;29;20023;-68
2023/03/25 17:23:19;;;;;;;9.57;5.00;;;;;;;;;;4965967;28;20034;-69
2023/03/25 17:25:48;;;;;;;11.40;4.80;;;;;;;;;;4952282;28;20083;-69
2023/03/25 17:28:32;;;;;;;13.68;5.45;;;;;;;;;;4952856;29;20471;-76
2023/03/25 17:30:58;;;;;;;13.23;6.53;;;;;;;;;;4952947;29;20024;-66
2023/03/25 17:33:37;;;;;;;14.70;6.53;;;;;;;;;;4953809;29;20042;-73
2023/03/25 17:36:08;;;;;;;14.25;6.63;;;;;;;;;;4952355;28;20024;-67
2023/03/25 17:38:47;;;;;;;10.63;6.00;;;;;;;;;;4950898;29;20050;-68
2023/03/25 17:41:17;;;;;;;12.88;6.20;;;;;;;;;;4933475;29;20035;-64
2023/03/25 17:43:46;;;;;;;13.05;7.00;;;;;;;;;;4933378;29;20031;-64
2023/03/25 17:46:13;;;;;;;13.63;8.25;;;;;;;;;;4932857;29;20032;-70
2023/03/25 17:48:39;;;;;;;16.65;10.32;;;;;;;;;;4933207;29;20035;-65
2023/03/25 17:51:05;;;;;;;26.73;16.77;;;;;;;;;;4915830;29;20083;-67
2023/03/25 17:53:31;;;;;;;12.60;7.82;;;;;;;;;;4949903;28;20023;-66
2023/03/25 17:55:58;;;;;;;12.15;7.30;;;;;;;;;;4951520;29;20031;-68
2023/03/25 17:58:24;;;;;;;9.55;5.63;;;;;;;;;;4952011;29;20489;-68
2023/03/25 18:00:51;;;;;;;10.25;5.30;;;;;;;;;;4952053;28;20110;-67
2023/03/25 18:03:19;;;;;;;8.93;5.28;;;;;;;;;;4952310;29;20054;-66
2023/03/25 18:05:49;;;;;;;12.35;5.57;;;;;;;;;;4951916;29;20487;-67
2023/03/25 18:08:16;;;;;;;8.05;3.95;;;;;;;;;;4934689;29;20032;-65
2023/03/25 18:10:42;;;;;;;12.52;6.95;;;;;;;;;;4951835;29;20035;-70
2023/03/25 18:13:09;;;;;;;11.70;6.13;;;;;;;;;;4951724;29;20078;-67
2023/03/25 18:15:36;;;;;;;15.45;5.78;;;;;;;;;;4951403;28;20054;-71
2023/03/25 18:18:03;;;;;;;8.27;3.60;;;;;;;;;;4951182;29;20150;-65
2023/03/25 18:20:31;;;;;;;7.93;3.50;;;;;;;;;;4952069;28;20086;-70
2023/03/25 18:22:57;;;;;;;5.88;3.40;;;;;;;;;;4951763;29;20027;-67
2023/03/25 18:25:23;;;;;;;7.30;3.55;;;;;;;;;;4951800;29;20027;-64
2023/03/25 18:27:51;;;;;;;8.35;4.00;;;;;;;;;;4952819;28;20050;-66
2023/03/25 18:30:19;;;;;;;8.25;4.35;;;;;;;;;;4955644;29;20126;-69
2023/03/25 18:32:45;;;;;;;7.38;3.97;;;;;;;;;;4955275;29;20047;-64
2023/03/25 18:35:11;;;;;;;7.50;4.47;;;;;;;;;;4955457;29;20054;-64
2023/03/25 18:37:38;;;;;;;9.43;5.38;;;;;;;;;;4955894;29;20126;-66
2023/03/25 18:40:23;;;;;;;8.02;5.40;;;;;;;;;;4955862;29;20030;-71
2023/03/25 18:42:50;;;;;;;9.85;5.50;;;;;;;;;;4955825;29;20037;-68
2023/03/25 18:45:16;;;;;;;9.70;5.45;;;;;;;;;;4943341;29;20028;-65
2023/03/25 18:47:42;;;;;;;11.13;4.88;;;;;;;;;;4954866;29;20042;-66
2023/03/25 18:50:15;;;;;;;9.23;5.15;;;;;;;;;;4955579;29;20110;-70
2023/03/25 18:52:41;;;;;;;9.10;4.80;;;;;;;;;;4952491;29;20495;-65
2023/03/25 18:55:08;;;;;;;10.05;5.25;;;;;;;;;;4954657;29;20069;-68
2023/03/25 18:57:35;;;;;;;9.13;4.90;;;;;;;;;;4954987;29;20078;-64
2023/03/25 19:00:01;;;;;;;8.45;4.55;;;;;;;;;;4955318;29;20086;-66
2023/03/25 19:02:27;;;;;;;9.25;4.53;;;;;;;;;;4955266;29;20027;-68
2023/03/25 19:04:53;;;;;;;8.65;5.13;;;;;;;;;;4937693;29;20039;-64
2023/03/25 19:07:19;;;;;;;7.40;4.55;;;;;;;;;;4955213;29;20063;-70
2023/03/25 19:09:45;;;;;;;8.93;4.82;;;;;;;;;;4955382;29;20037;-64
2023/03/25 19:12:11;;;;;;;8.52;4.68;;;;;;;;;;4954917;29;20123;-70
2023/03/25 19:14:37;;;;;;;8.60;4.63;;;;;;;;;;4955322;29;20110;-64
2023/03/25 19:17:03;;;;;;;10.40;5.60;;;;;;;;;;4954603;28;20074;-64
2023/03/25 19:19:29;;;;;;;12.02;6.30;;;;;;;;;;4955349;29;20027;-68
2023/03/25 19:21:55;;;;;;;9.50;6.53;;;;;;;;;;4958460;28;20102;-67
2023/03/25 19:24:21;;;;;;;11.68;6.57;;;;;;;;;;4973618;28;20026;-63
2023/03/25 19:26:47;;;;;;;8.75;5.85;;;;;;;;;;4974890;28;20031;-64
2023/03/25 19:29:14;;;;;;;9.98;5.43;;;;;;;;;;4974710;28;20033;-68
2023/03/25 19:31:41;;;;;;;9.68;5.13;;;;;;;;;;4974008;28;20037;-69
2023/03/25 19:34:08;;;;;;;8.68;5.25;;;;;;;;;;4974054;28;20062;-66
2023/03/25 19:36:34;;;;;;;8.27;5.40;;;;;;;;;;4965945;28;20050;-67
2023/03/25 19:39:04;;;;;;;8.77;5.70;;;;;;;;;;4954211;28;20031;-63
2023/03/25 19:41:31;;;;;;;11.77;5.72;;;;;;;;;;4954044;29;20019;-64
2023/03/25 19:43:58;;;;;;;9.63;6.10;;;;;;;;;;4954443;29;20034;-63
2023/03/25 19:46:24;;;;;;;12.45;7.05;;;;;;;;;;4953967;29;20038;-62
2023/03/25 19:48:51;;;;;;;11.10;6.78;;;;;;;;;;4936278;29;20043;-64
2023/03/25 19:51:17;;;;;;;11.40;5.35;;;;;;;;;;4936819;29;20077;-64
2023/03/25 19:53:43;;;;;;;20.98;12.85;;;;;;;;;;4953787;29;20431;-62
2023/03/25 19:56:12;;;;;;;11.43;7.35;;;;;;;;;;4953865;29;20027;-73
2023/03/25 19:58:39;;;;;;;10.70;6.72;;;;;;;;;;4953680;29;20040;-69
2023/03/25 20:01:05;;;;;;;7.38;5.38;;;;;;;;;;4954100;29;20110;-70
2023/03/25 20:03:34;;;;;;;9.98;5.60;;;;;;;;;;4954062;29;20027;-69
2023/03/25 20:06:01;;;;;;;13.13;7.13;;;;;;;;;;4954570;29;20027;-76
2023/03/25 20:08:28;;;;;;;14.05;8.10;;;;;;;;;;4954276;29;20038;-66
2023/03/25 20:10:54;;;;;;;19.48;12.35;;;;;;;;;;4951395;29;20027;-66
2023/03/25 20:13:20;;;;;;;24.52;14.15;;;;;;;;;;4954149;29;20455;-63